Makarewa, New Zealand
Current Conditions -  °F | °C
As of 11:00 PM on Monday 22 Dec 2014 (Local Time) from NZCH Reporting Station
Overcast Overcast  
Wind Chill: 59°   Ceiling: 1000
Heat Index: 59°   Visibility: 6mi
Dew Point: 55°   Wind: 10mph
Humidity: 88%   Direction: 70°ENE
Pressure: 30.18"   Gusts: NA
Location:  46.33°S, 168.35°E
Report Text: NZCH 221100Z AUTO 07009KT 9999 OVC010/// 15/13 Q1022 BECMGBKN009
Loading
Personal Weather Stations






























Interactive Weather Map New forecast layout! Learn more

10-Day Weather Forecast

Advertisements
Track Severe Weather on mobile